Time;durP1;ratioP1;P1;durP2;ratioP2;P2;SDS_P1;SDS_P2;PMS_P1;PMS_P2;Temp;Humidity;BMP_temperature;BMP_pressure;BME280_temperature;BME280_humidity;BME280_pressure;Samples;Min_cycle;Max_cycle;Signal;HPM_P1;HPM_P2
2022/02/24 00:01:31;;;;;;;14.30;2.97;;;;;;;7.09;74.15;101509.34;5006168;28;20034;-83
2022/02/24 00:03:56;;;;;;;14.02;2.72;;;;;;;7.08;74.24;101504.28;4974961;28;20026;-81
2022/02/24 00:06:24;;;;;;;16.92;3.83;;;;;;;6.94;75.16;101505.34;5006206;28;20092;-80
2022/02/24 00:08:49;;;;;;;13.02;3.15;;;;;;;6.93;75.11;101512.25;4973244;28;20516;-82
2022/02/24 00:11:15;;;;;;;13.98;3.00;;;;;;;6.81;75.43;101495.94;4971400;28;20062;-79
2022/02/24 00:13:40;;;;;;;18.08;3.25;;;;;;;6.89;75.76;101497.94;4972374;28;20066;-81
2022/02/24 00:16:06;;;;;;;16.17;3.42;;;;;;;6.93;75.02;101493.38;4970991;28;20057;-82
2022/02/24 00:18:32;;;;;;;15.35;4.45;;;;;;;6.85;75.78;101483.63;4988581;28;20080;-82
2022/02/24 00:20:57;;;;;;;12.52;3.10;;;;;;;6.89;74.86;101489.38;4986443;28;20046;-80
2022/02/24 00:23:23;;;;;;;14.02;3.25;;;;;;;6.91;74.84;101485.78;4984649;28;20385;-81
2022/02/24 00:25:48;;;;;;;13.15;3.00;;;;;;;6.88;75.92;101482.59;4969998;28;20038;-81
2022/02/24 00:28:13;;;;;;;11.43;2.28;;;;;;;6.90;75.06;101478.16;4984404;28;20050;-81
2022/02/24 00:30:39;;;;;;;15.45;2.88;;;;;;;6.85;75.56;101475.91;4984056;28;20038;-81
2022/02/24 00:33:06;;;;;;;12.07;2.92;;;;;;;6.85;75.61;101475.91;4986975;28;20030;-79
2022/02/24 00:35:31;;;;;;;17.70;2.80;;;;;;;6.87;75.59;101470.63;4997367;28;20448;-81
2022/02/24 00:37:57;;;;;;;9.50;3.10;;;;;;;6.87;75.71;101475.78;4982659;28;20030;-80
2022/02/24 00:40:22;;;;;;;14.85;3.63;;;;;;;6.92;75.60;101476.28;4989859;28;20480;-78
2022/02/24 00:42:48;;;;;;;9.07;2.47;;;;;;;6.85;75.43;101475.91;4988335;28;20033;-79
2022/02/24 00:45:13;;;;;;;11.07;3.15;;;;;;;6.81;75.89;101467.56;4972840;28;20265;-81
2022/02/24 00:47:39;;;;;;;17.10;2.42;;;;;;;6.80;75.88;101468.53;4990526;28;20037;-82
2022/02/24 00:50:04;;;;;;;10.15;2.28;;;;;;;6.87;75.31;101455.16;4985777;28;20043;-82
2022/02/24 00:52:30;;;;;;;10.55;2.45;;;;;;;6.85;75.21;101460.44;4986752;28;20023;-82
2022/02/24 00:54:55;;;;;;;9.07;2.75;;;;;;;7.00;74.36;101453.31;5000966;28;20084;-81
2022/02/24 00:57:21;;;;;;;14.15;2.47;;;;;;;6.93;75.11;101457.28;4970981;28;20407;-81
2022/02/24 00:59:46;;;;;;;13.48;2.83;;;;;;;6.94;74.61;101458.94;5001799;28;20057;-81
2022/02/24 01:02:12;;;;;;;15.23;2.80;;;;;;;6.89;75.20;101455.88;4974151;28;20045;-81
2022/02/24 01:04:37;;;;;;;16.98;3.00;;;;;;;6.87;75.38;101460.31;4985817;28;20038;-81
2022/02/24 01:07:03;;;;;;;13.35;2.90;;;;;;;6.99;74.72;101447.34;4999173;28;20125;-81
2022/02/24 01:09:29;;;;;;;12.52;2.60;;;;;;;6.94;74.66;101443.47;5000572;28;20272;-81
2022/02/24 01:11:54;;;;;;;12.82;2.63;;;;;;;6.93;74.50;101444.38;4968994;28;20217;-82
2022/02/24 01:14:20;;;;;;;11.48;3.15;;;;;;;6.87;74.53;101444.84;4971124;28;20042;-81
2022/02/24 01:16:46;;;;;;;13.05;2.90;;;;;;;6.90;74.46;101436.91;4999859;28;20037;-79
2022/02/24 01:19:11;;;;;;;18.40;2.72;;;;;;;6.82;75.21;101440.88;4982321;28;20046;-78
2022/02/24 01:21:37;;;;;;;11.48;2.60;;;;;;;6.85;75.73;101431.25;4968225;28;20035;-80
2022/02/24 01:24:02;;;;;;;16.08;3.08;;;;;;;6.92;74.60;101422.13;4988348;28;20046;-82
2022/02/24 01:26:28;;;;;;;9.35;2.63;;;;;;;6.88;74.75;101424.13;4998461;28;20042;-81
2022/02/24 01:28:53;;;;;;;18.77;3.50;;;;;;;6.90;74.94;101422.25;4987259;28;20030;-81
2022/02/24 01:31:19;;;;;;;15.10;2.60;;;;;;;7.04;73.35;101417.78;4984633;28;20065;-81
2022/02/24 01:33:44;;;;;;;13.32;2.88;;;;;;;7.08;73.82;101411.44;4988018;28;20534;-81
2022/02/24 01:36:10;;;;;;;8.75;2.95;;;;;;;6.99;73.83;101411.22;4966752;28;20035;-79
2022/02/24 01:38:35;;;;;;;10.25;3.08;;;;;;;7.01;74.23;101404.19;4983561;28;20044;-82
2022/02/24 01:41:01;;;;;;;12.25;2.97;;;;;;;6.88;74.43;101405.25;4967469;28;20026;-78
2022/02/24 01:43:27;;;;;;;16.85;2.83;;;;;;;6.90;74.27;101400.81;4998532;28;20473;-80
2022/02/24 01:45:53;;;;;;;9.15;2.60;;;;;;;6.97;73.60;101389.91;4967360;28;20034;-82
2022/02/24 01:48:18;;;;;;;12.75;2.83;;;;;;;6.95;74.12;101386.63;4987833;28;20045;-80
2022/02/24 01:50:44;;;;;;;11.93;2.60;;;;;;;7.06;73.54;101390.13;4989211;28;20038;-81
2022/02/24 01:53:10;;;;;;;10.07;2.78;;;;;;;6.97;73.97;101381.34;4967466;28;20053;-81
2022/02/24 01:55:36;;;;;;;11.45;2.75;;;;;;;6.94;74.32;101373.84;5002579;28;20026;-81
2022/02/24 01:58:03;;;;;;;11.07;2.63;;;;;;;6.94;74.84;101376.41;4985988;28;20519;-81
2022/02/24 02:00:29;;;;;;;14.10;2.53;;;;;;;6.86;74.99;101366.69;4989032;28;20045;-79
2022/02/24 02:02:55;;;;;;;15.98;2.88;;;;;;;6.82;74.69;101363.53;4971702;28;20039;-80
2022/02/24 02:05:21;;;;;;;9.40;2.60;;;;;;;6.82;74.96;101363.53;4994293;28;20030;-80
2022/02/24 02:07:47;;;;;;;10.82;2.65;;;;;;;6.75;75.17;101356.38;4984896;28;20158;-81
2022/02/24 02:10:12;;;;;;;12.20;3.15;;;;;;;6.94;74.61;101358.38;4966283;28;20042;-78
2022/02/24 02:12:50;;;;;;;12.65;2.75;;;;;;;6.86;75.19;101364.13;4997602;28;20036;-81
2022/02/24 02:15:16;;;;;;;13.32;2.47;;;;;;;6.91;75.11;101356.88;4984682;28;20477;-81
2022/02/24 02:17:42;;;;;;;14.05;2.70;;;;;;;6.85;75.35;101354.72;4984982;28;20037;-80
2022/02/24 02:20:08;;;;;;;12.35;3.17;;;;;;;6.87;74.71;101350.28;4968995;28;20034;-81
2022/02/24 02:22:34;;;;;;;18.42;2.55;;;;;;;6.89;74.44;101348.41;4982705;28;20932;-80
2022/02/24 02:25:03;;;;;;;27.63;3.00;;;;;;;6.89;74.62;101350.16;4985861;28;20133;-80
2022/02/24 02:27:29;;;;;;;12.63;3.05;;;;;;;6.80;75.28;101344.78;4982712;28;20460;-81
2022/02/24 02:29:55;;;;;;;16.00;2.60;;;;;;;6.77;75.67;101337.28;4970405;28;20108;-80
2022/02/24 02:32:21;;;;;;;11.50;2.50;;;;;;;6.83;74.97;101334.22;4982874;28;20037;-80
2022/02/24 02:34:47;;;;;;;8.38;2.33;;;;;;;6.83;74.99;101333.41;4999617;28;20030;-81
2022/02/24 02:37:12;;;;;;;13.38;2.65;;;;;;;6.88;74.64;101321.00;4966065;28;20042;-79
2022/02/24 02:39:38;;;;;;;11.80;2.92;;;;;;;6.79;75.06;101322.50;4967069;28;20034;-82
2022/02/24 02:42:03;;;;;;;16.00;2.67;;;;;;;6.75;75.41;101315.97;4968871;28;20034;-80
2022/02/24 02:44:29;;;;;;;10.77;2.38;;;;;;;6.76;75.93;101322.78;4962492;28;20177;-81
2022/02/24 02:46:54;;;;;;;13.68;2.92;;;;;;;6.75;76.11;101317.72;4983230;28;20039;-81
2022/02/24 02:49:20;;;;;;;12.20;2.65;;;;;;;6.79;75.85;101306.22;4977295;28;20497;-81
2022/02/24 02:51:45;;;;;;;13.45;2.88;;;;;;;6.86;75.88;101306.59;4984224;28;20030;-80
2022/02/24 02:54:11;;;;;;;8.20;2.60;;;;;;;6.82;75.22;101311.97;4967059;28;20153;-80
2022/02/24 02:56:36;;;;;;;12.00;2.50;;;;;;;6.82;75.54;101299.09;4984149;28;20122;-81
2022/02/24 02:59:02;;;;;;;9.77;2.50;;;;;;;6.84;75.49;101298.97;4984774;28;20497;-81
2022/02/24 03:01:27;;;;;;;14.32;2.88;;;;;;;6.76;75.93;101286.69;5001696;28;20113;-81
2022/02/24 03:03:53;;;;;;;7.68;2.50;;;;;;;6.79;75.37;101290.78;4985018;28;20030;-81
2022/02/24 03:06:18;;;;;;;7.72;2.90;;;;;;;6.70;76.16;101287.13;4986163;28;20480;-79
2022/02/24 03:08:44;;;;;;;16.50;2.63;;;;;;;6.77;75.63;101283.16;4987511;28;20046;-80
2022/02/24 03:11:10;;;;;;;11.20;2.50;;;;;;;6.77;76.14;101275.41;4971087;28;20046;-81
2022/02/24 03:13:35;;;;;;;11.38;2.53;;;;;;;6.79;75.97;101270.16;4988940;28;20027;-78
2022/02/24 03:16:02;;;;;;;16.38;2.78;;;;;;;6.77;76.23;101272.03;4989230;28;20042;-80
2022/02/24 03:18:27;;;;;;;17.27;3.00;;;;;;;6.78;75.89;101259.03;4989537;28;20354;-79
2022/02/24 03:20:53;;;;;;;12.45;2.53;;;;;;;6.77;76.30;101266.88;4985515;28;20093;-79
2022/02/24 03:23:18;;;;;;;11.27;2.28;;;;;;;6.75;76.18;101261.03;4968925;28;20050;-80
2022/02/24 03:25:44;;;;;;;10.63;2.22;;;;;;;6.73;76.57;101255.97;5007401;28;20030;-80
2022/02/24 03:28:09;;;;;;;13.82;3.40;;;;;;;6.65;76.99;101257.50;4970845;28;20046;-78
2022/02/24 03:30:37;;;;;;;16.58;3.00;;;;;;;6.62;77.05;101248.25;5004435;28;20033;-79
2022/02/24 03:33:04;;;;;;;7.97;2.50;;;;;;;6.66;77.20;101246.28;4970208;28;20153;-81
2022/02/24 03:35:30;;;;;;;13.38;2.70;;;;;;;6.58;77.48;101246.88;4990293;28;20471;-79
2022/02/24 03:37:56;;;;;;;14.20;3.13;;;;;;;6.60;77.33;101245.81;5005326;28;20070;-80
2022/02/24 03:40:22;;;;;;;14.20;2.70;;;;;;;6.62;77.67;101241.34;5004893;28;20042;-81
2022/02/24 03:42:51;;;;;;;12.65;2.53;;;;;;;6.65;77.53;101239.47;4986768;28;20065;-79
2022/02/24 03:45:17;;;;;;;16.50;2.75;;;;;;;6.80;76.43;101238.28;4989338;28;20473;-79
2022/02/24 03:47:42;;;;;;;11.32;2.50;;;;;;;6.69;76.97;101233.97;4990135;28;20273;-79
2022/02/24 03:50:11;;;;;;;11.43;2.50;;;;;;;6.62;76.93;101231.03;4971786;28;20034;-79
2022/02/24 03:52:37;;;;;;;11.88;2.75;;;;;;;6.62;76.83;101214.75;5003351;28;20034;-79
2022/02/24 03:55:03;;;;;;;12.05;2.50;;;;;;;6.65;77.08;101217.13;4990038;28;20047;-77
2022/02/24 03:57:29;;;;;;;8.93;2.45;;;;;;;6.58;77.62;101209.03;4989188;28;20128;-80
2022/02/24 03:59:54;;;;;;;11.60;2.90;;;;;;;6.61;77.56;101211.38;4990528;28;20116;-79
2022/02/24 04:02:20;;;;;;;11.00;3.88;;;;;;;6.62;77.58;101205.25;5002165;28;20037;-80
2022/02/24 04:04:45;;;;;;;10.70;2.10;;;;;;;6.60;77.54;101207.16;4972996;28;20038;-80
2022/02/24 04:07:11;;;;;;;16.70;3.22;;;;;;;6.55;77.77;101205.88;4986169;28;20045;-78
2022/02/24 04:09:37;;;;;;;13.25;2.63;;;;;;;6.60;77.46;101204.56;4972357;28;20239;-80
2022/02/24 04:12:04;;;;;;;13.38;3.55;;;;;;;6.57;77.37;101197.09;4987179;28;20503;-81
2022/02/24 04:14:30;;;;;;;11.90;3.20;;;;;;;6.58;77.88;101187.59;4987991;28;20073;-80
2022/02/24 04:16:56;;;;;;;8.48;2.78;;;;;;;6.53;77.94;101194.88;5003392;28;20077;-81
2022/02/24 04:19:22;;;;;;;14.57;2.65;;;;;;;6.52;78.34;101190.66;4987100;28;20049;-79
2022/02/24 04:21:48;;;;;;;10.05;2.42;;;;;;;6.52;77.88;101193.25;5004087;28;20444;-78
2022/02/24 04:24:13;;;;;;;11.07;2.70;;;;;;;6.50;78.36;101187.38;5009433;28;20038;-79
2022/02/24 04:26:39;;;;;;;13.70;2.20;;;;;;;6.49;78.50;101196.06;5002810;28;20041;-79
2022/02/24 04:29:04;;;;;;;19.13;2.85;;;;;;;6.53;78.30;101184.56;4969993;28;20034;-81
2022/02/24 04:31:29;;;;;;;9.70;2.75;;;;;;;6.55;78.59;101183.50;5001977;28;20153;-79
2022/02/24 04:33:55;;;;;;;16.38;3.08;;;;;;;6.54;78.05;101181.88;4985780;28;20038;-80
2022/02/24 04:36:22;;;;;;;7.47;2.17;;;;;;;6.49;78.28;101172.88;4985999;28;20034;-80
2022/02/24 04:38:48;;;;;;;13.55;2.25;;;;;;;6.48;78.46;101166.06;4986954;28;20132;-81
2022/02/24 04:41:13;;;;;;;12.15;2.70;;;;;;;6.57;77.63;101173.91;5003303;28;20045;-78
2022/02/24 04:43:39;;;;;;;7.40;1.73;;;;;;;6.58;78.60;101169.56;4990255;28;20034;-81
2022/02/24 04:46:04;;;;;;;8.55;2.15;;;;;;;6.58;77.62;101151.53;4987484;28;20041;-80
2022/02/24 04:48:30;;;;;;;20.42;3.72;;;;;;;6.52;78.12;101141.72;4985466;28;20049;-79
2022/02/24 04:50:55;;;;;;;15.02;3.13;;;;;;;6.52;78.27;101136.56;5004304;28;20115;-80
2022/02/24 04:53:21;;;;;;;13.85;2.35;;;;;;;6.89;76.33;101120.72;4969491;28;20081;-80
2022/02/24 04:55:46;;;;;;;12.63;2.58;;;;;;;6.75;76.85;101112.34;5003842;28;20564;-79
2022/02/24 04:58:12;;;;;;;12.65;2.95;;;;;;;6.69;76.96;101107.69;5003019;28;20085;-81
2022/02/24 05:00:38;;;;;;;9.77;2.83;;;;;;;6.89;76.46;101102.66;4986939;28;20026;-81
2022/02/24 05:03:03;;;;;;;14.88;2.85;;;;;;;6.77;76.65;101104.50;4989820;28;20057;-79
2022/02/24 05:05:29;;;;;;;11.80;2.60;;;;;;;6.80;77.04;101104.25;4969844;28;20588;-80
2022/02/24 05:07:55;;;;;;;12.82;2.67;;;;;;;6.68;77.27;101098.31;4970309;28;20411;-79
2022/02/24 05:10:20;;;;;;;7.15;2.00;;;;;;;6.79;76.72;101090.53;5004181;28;20263;-79
2022/02/24 05:12:48;;;;;;;17.35;3.47;;;;;;;6.70;77.04;101080.94;4969576;28;20030;-81
2022/02/24 05:15:13;;;;;;;12.15;2.80;;;;;;;6.65;77.73;101083.09;5003191;28;20405;-79
2022/02/24 05:17:40;;;;;;;12.75;2.58;;;;;;;6.68;76.71;101080.25;4986809;28;20038;-79
2022/02/24 05:20:11;;;;;;;12.73;2.60;;;;;;;6.62;76.96;101076.41;4971328;28;20301;-79
2022/02/24 05:22:39;;;;;;;10.13;3.10;;;;;;;6.62;77.30;101068.69;4986016;28;20030;-80
2022/02/24 05:25:06;;;;;;;13.02;2.42;;;;;;;6.62;77.24;101073.03;4969341;28;20034;-80
2022/02/24 05:27:32;;;;;;;11.40;2.33;;;;;;;6.63;77.00;101074.69;4971901;28;20568;-80
2022/02/24 05:29:57;;;;;;;13.80;3.80;;;;;;;6.69;76.36;101073.38;4986039;28;20048;-79
2022/02/24 05:32:23;;;;;;;15.82;4.43;;;;;;;6.74;76.00;101074.63;4970397;28;20046;-80
2022/02/24 05:34:48;;;;;;;12.15;2.90;;;;;;;6.74;75.57;101071.22;5001351;28;20448;-81
2022/02/24 05:37:14;;;;;;;10.45;1.98;;;;;;;6.70;74.94;101070.66;5005628;28;20141;-80
2022/02/24 05:39:39;;;;;;;10.73;2.85;;;;;;;6.74;74.56;101061.75;4968715;28;20038;-79
2022/02/24 05:42:04;;;;;;;12.32;1.98;;;;;;;6.62;74.88;101060.16;4987986;28;20058;-81
2022/02/24 05:44:30;;;;;;;13.05;1.98;;;;;;;6.67;74.10;101055.44;4999414;28;20030;-79
2022/02/24 05:46:56;;;;;;;9.88;1.70;;;;;;;6.84;73.64;101059.22;4988320;28;20063;-79
2022/02/24 05:49:21;;;;;;;14.77;2.97;;;;;;;6.81;73.47;101047.41;4984789;28;20042;-80
2022/02/24 05:51:47;;;;;;;7.00;1.77;;;;;;;6.71;73.31;101058.59;4971036;28;20042;-81
2022/02/24 05:54:12;;;;;;;17.35;1.83;;;;;;;6.74;73.55;101059.16;4969366;28;20128;-80
2022/02/24 05:56:38;;;;;;;5.38;1.52;;;;;;;6.62;74.19;101057.56;4983942;28;20038;-80
2022/02/24 05:59:04;;;;;;;15.20;2.53;;;;;;;6.61;73.90;101055.91;4985834;28;20034;-80
2022/02/24 06:01:30;;;;;;;11.13;2.38;;;;;;;6.54;74.43;101049.66;4986669;28;20142;-79
2022/02/24 06:03:56;;;;;;;10.95;2.08;;;;;;;6.50;74.65;101050.81;5002393;28;20121;-81
2022/02/24 06:06:21;;;;;;;11.35;2.65;;;;;;;6.60;74.40;101046.56;4984172;28;20038;-80
2022/02/24 06:08:46;;;;;;;9.25;2.22;;;;;;;6.52;74.47;101057.50;4982635;28;20069;-79
2022/02/24 06:11:12;;;;;;;15.38;2.88;;;;;;;6.75;73.35;101045.31;4986951;28;20034;-79
2022/02/24 06:13:37;;;;;;;9.50;1.95;;;;;;;6.66;73.33;101053.78;4984134;28;20452;-78
2022/02/24 06:16:03;;;;;;;8.50;1.77;;;;;;;6.58;73.54;101048.47;4984460;28;20294;-78
2022/02/24 06:18:29;;;;;;;9.57;1.73;;;;;;;6.52;74.03;101043.81;4983336;28;20026;-81
2022/02/24 06:20:55;;;;;;;11.60;1.98;;;;;;;6.55;74.42;101043.53;4983248;28;20340;-78
2022/02/24 06:23:20;;;;;;;7.95;2.30;;;;;;;6.55;74.36;101051.28;4982940;28;20113;-78
2022/02/24 06:25:46;;;;;;;9.38;1.95;;;;;;;6.57;74.33;101044.22;4983036;28;20034;-79
2022/02/24 06:28:12;;;;;;;7.65;1.88;;;;;;;6.51;75.02;101057.63;4983310;28;20046;-77
2022/02/24 06:30:37;;;;;;;8.07;2.47;;;;;;;6.51;75.19;101045.53;4985405;28;20034;-80
2022/02/24 06:33:04;;;;;;;14.30;1.67;;;;;;;6.63;74.35;101052.31;4983096;28;20141;-79
2022/02/24 06:35:29;;;;;;;11.00;2.30;;;;;;;6.68;74.73;101040.78;4981730;28;20645;-78
2022/02/24 06:37:56;;;;;;;10.98;1.80;;;;;;;6.63;74.64;101047.16;4996308;28;20038;-78
2022/02/24 06:40:22;;;;;;;7.38;2.08;;;;;;;6.56;74.77;101042.63;4974802;28;20034;-79
2022/02/24 06:42:48;;;;;;;14.77;2.40;;;;;;;6.58;74.43;101033.81;4989957;28;20611;-79
2022/02/24 06:45:14;;;;;;;12.63;2.45;;;;;;;6.67;74.02;101031.41;5011414;28;20072;-78
2022/02/24 06:47:40;;;;;;;10.38;1.90;;;;;;;6.75;73.56;101022.13;4990734;28;20113;-77
2022/02/24 06:50:06;;;;;;;11.20;1.88;;;;;;;6.66;73.68;101028.03;4992030;28;20117;-78
2022/02/24 06:52:33;;;;;;;13.20;1.70;;;;;;;6.76;73.59;101020.34;4989306;28;20030;-79
2022/02/24 06:54:59;;;;;;;7.65;2.30;;;;;;;6.65;73.79;101023.84;4974576;28;20034;-78
2022/02/24 06:57:24;;;;;;;19.75;2.40;;;;;;;6.67;73.72;101014.22;4989568;28;20523;-80
2022/02/24 06:59:50;;;;;;;6.32;1.83;;;;;;;6.65;73.93;101020.41;4987429;28;20030;-80
2022/02/24 07:02:15;;;;;;;12.52;1.92;;;;;;;6.68;73.72;101013.25;4982215;28;20030;-81
2022/02/24 07:04:41;;;;;;;9.35;2.20;;;;;;;6.67;73.83;101011.63;4984574;28;20034;-78
2022/02/24 07:07:06;;;;;;;20.05;2.25;;;;;;;6.69;73.78;101006.38;5000947;28;20038;-79
2022/02/24 07:09:32;;;;;;;10.38;2.58;;;;;;;6.76;73.92;101000.56;4982490;28;20022;-80
2022/02/24 07:11:58;;;;;;;16.40;2.58;;;;;;;6.69;74.05;100999.44;4999555;28;20397;-80
2022/02/24 07:14:24;;;;;;;16.88;2.40;;;;;;;6.70;73.85;100998.47;4965053;28;20073;-81
2022/02/24 07:16:49;;;;;;;9.88;2.15;;;;;;;6.74;73.58;100994.75;4983756;28;20162;-76
2022/02/24 07:19:15;;;;;;;16.55;3.40;;;;;;;6.68;74.11;100997.78;4998722;28;20049;-78
2022/02/24 07:21:41;;;;;;;13.15;2.28;;;;;;;6.75;73.98;100998.13;4970617;28;20034;-78
2022/02/24 07:24:07;;;;;;;8.63;2.13;;;;;;;6.64;74.29;100996.41;4985145;28;20038;-78
2022/02/24 07:26:34;;;;;;;13.20;2.83;;;;;;;6.68;74.11;100990.06;4997024;28;20034;-79
2022/02/24 07:29:00;;;;;;;11.63;2.00;;;;;;;6.82;73.56;100983.78;4996981;28;20037;-76
2022/02/24 07:31:25;;;;;;;12.05;1.73;;;;;;;6.79;73.80;100987.41;4984611;28;20034;-77
2022/02/24 07:33:51;;;;;;;18.17;2.05;;;;;;;6.74;74.03;100981.00;5000469;28;20076;-78
2022/02/24 07:36:16;;;;;;;10.02;2.55;;;;;;;6.86;73.68;100969.69;5006150;28;20062;-77
2022/02/24 07:38:43;;;;;;;9.85;1.77;;;;;;;6.83;73.93;100967.38;5000143;28;20035;-78
2022/02/24 07:41:10;;;;;;;12.85;2.22;;;;;;;6.88;72.81;100967.81;4989006;28;20551;-76
2022/02/24 07:43:36;;;;;;;10.27;2.50;;;;;;;6.88;73.18;100964.44;4994567;28;20042;-77
2022/02/24 07:46:02;;;;;;;14.43;2.92;;;;;;;6.89;72.88;100966.03;4987421;28;20121;-83
2022/02/24 07:48:28;;;;;;;7.03;1.90;;;;;;;6.94;72.29;100966.47;4982119;28;20536;-77
2022/02/24 07:50:55;;;;;;;9.25;2.20;;;;;;;6.92;73.11;100970.94;4981578;28;20038;-78
2022/02/24 07:53:22;;;;;;;8.82;1.90;;;;;;;6.86;73.54;100967.13;5003617;28;20045;-78
2022/02/24 07:55:48;;;;;;;10.43;2.67;;;;;;;6.88;73.78;100951.53;5000909;28;20049;-78
2022/02/24 07:58:13;;;;;;;14.50;2.33;;;;;;;6.97;73.36;100949.00;4989615;28;20035;-77
2022/02/24 08:00:39;;;;;;;7.80;2.20;;;;;;;7.11;73.04;100952.19;4975953;28;20042;-77
2022/02/24 08:03:04;;;;;;;10.80;2.25;;;;;;;6.96;73.90;100959.44;4971520;28;20094;-77
2022/02/24 08:05:30;;;;;;;10.30;2.03;;;;;;;7.00;72.57;100953.06;4976358;28;20503;-77
2022/02/24 08:07:55;;;;;;;12.90;2.22;;;;;;;7.11;72.59;100947.81;5007745;28;20088;-78
2022/02/24 08:10:21;;;;;;;9.27;2.38;;;;;;;7.11;72.63;100941.84;4989547;28;20042;-77
2022/02/24 08:12:47;;;;;;;13.02;2.35;;;;;;;7.06;71.78;100946.59;4975690;28;20018;-77
2022/02/24 08:15:17;;;;;;;12.98;2.15;;;;;;;7.11;72.19;100937.50;5007770;28;20112;-77
2022/02/24 08:17:43;;;;;;;11.32;2.33;;;;;;;7.06;72.22;100936.25;4990753;28;20382;-78
2022/02/24 08:20:09;;;;;;;8.77;1.85;;;;;;;7.12;72.31;100935.75;4985167;28;20109;-77
2022/02/24 08:22:37;;;;;;;12.85;2.63;;;;;;;7.21;72.10;100930.63;5004022;28;20066;-78
2022/02/24 08:25:04;;;;;;;9.57;3.08;;;;;;;7.37;71.58;100926.75;4973409;28;20768;-78
2022/02/24 08:27:29;;;;;;;14.18;2.30;;;;;;;7.40;71.59;100919.56;5004831;28;20042;-77
2022/02/24 08:29:57;;;;;;;10.80;1.75;;;;;;;7.44;71.39;100909.78;4969667;28;20104;-77
2022/02/24 08:32:24;;;;;;;16.50;2.60;;;;;;;7.59;70.53;100912.78;4993597;28;20041;-78
2022/02/24 08:34:50;;;;;;;13.10;2.38;;;;;;;7.64;71.13;100907.22;4991929;28;20034;-77
2022/02/24 08:37:15;;;;;;;14.18;1.92;;;;;;;7.55;71.39;100916.59;4988714;28;20030;-78
2022/02/24 08:39:41;;;;;;;14.10;2.33;;;;;;;7.64;71.03;100913.19;4986720;28;20396;-78
2022/02/24 08:42:06;;;;;;;9.45;2.17;;;;;;;7.56;70.96;100918.22;4995300;28;20042;-78
2022/02/24 08:44:32;;;;;;;11.73;3.35;;;;;;;7.62;70.71;100909.94;4997835;28;20041;-77
2022/02/24 08:46:58;;;;;;;10.60;3.38;;;;;;;7.64;70.44;100907.22;4991159;28;20042;-77
2022/02/24 08:49:23;;;;;;;10.45;1.98;;;;;;;7.70;70.87;100897.16;4991530;28;20026;-78
2022/02/24 08:51:48;;;;;;;11.05;2.70;;;;;;;7.66;71.00;100893.22;5007161;28;20685;-78
2022/02/24 08:54:14;;;;;;;12.75;2.38;;;;;;;7.65;71.41;100894.19;4989099;28;20100;-78
2022/02/24 08:56:41;;;;;;;13.48;2.22;;;;;;;7.79;71.17;100883.47;4990400;28;20056;-77
2022/02/24 08:59:07;;;;;;;7.45;2.28;;;;;;;7.89;70.52;100877.47;4992211;28;20413;-79
2022/02/24 09:01:32;;;;;;;13.45;2.05;;;;;;;7.88;70.41;100865.53;5012021;28;20038;-77
2022/02/24 09:03:58;;;;;;;11.52;3.67;;;;;;;8.03;69.52;100864.16;4972414;28;20022;-77
2022/02/24 09:06:23;;;;;;;9.13;1.95;;;;;;;7.99;70.55;100858.47;4985872;28;20128;-78
2022/02/24 09:08:49;;;;;;;10.85;2.15;;;;;;;8.16;70.80;100858.72;4985496;28;20038;-76
2022/02/24 09:11:14;;;;;;;7.90;1.80;;;;;;;8.15;70.16;100857.06;4999547;28;20038;-79
2022/02/24 09:13:41;;;;;;;7.97;2.22;;;;;;;8.28;70.67;100847.25;4998580;28;20053;-77
2022/02/24 09:16:10;;;;;;;12.68;2.08;;;;;;;8.34;71.21;100844.13;4986082;28;20030;-78
2022/02/24 09:18:36;;;;;;;14.10;2.25;;;;;;;8.58;69.85;100833.31;4986698;28;20089;-78
2022/02/24 09:21:02;;;;;;;18.55;2.33;;;;;;;8.72;70.62;100826.88;4971133;28;20031;-78
2022/02/24 09:23:27;;;;;;;9.00;1.85;;;;;;;8.89;69.79;100835.66;4995990;28;20492;-77
2022/02/24 09:25:53;;;;;;;14.13;2.25;;;;;;;8.82;69.57;100820.84;4998701;28;20034;-83
2022/02/24 09:28:18;;;;;;;13.32;3.28;;;;;;;8.72;70.50;100826.06;5002324;28;20049;-78
2022/02/24 09:30:44;;;;;;;10.65;2.00;;;;;;;8.89;70.79;100811.53;4963840;28;20037;-77
2022/02/24 09:33:10;;;;;;;11.93;2.53;;;;;;;8.95;70.49;100810.97;4981664;28;20037;-77
2022/02/24 09:35:35;;;;;;;9.70;2.38;;;;;;;8.87;70.48;100816.03;4998853;28;20042;-78
2022/02/24 09:38:02;;;;;;;11.05;2.90;;;;;;;9.03;69.71;100798.13;4967975;28;20042;-78
2022/02/24 09:40:30;;;;;;;12.25;2.80;;;;;;;9.11;69.15;100782.69;5005945;28;20049;-79
2022/02/24 09:42:56;;;;;;;14.70;2.75;;;;;;;9.25;68.59;100790.88;5003869;28;20077;-78
2022/02/24 09:45:21;;;;;;;13.80;2.70;;;;;;;9.48;69.97;100786.91;4995482;28;20037;-77
2022/02/24 09:47:50;;;;;;;17.10;2.83;;;;;;;9.65;68.25;100785.28;4988685;28;20030;-77
2022/02/24 09:50:15;;;;;;;17.92;2.85;;;;;;;9.61;67.49;100771.00;4991837;28;20050;-77
2022/02/24 09:52:41;;;;;;;16.02;2.78;;;;;;;9.51;67.64;100772.84;5007368;28;20031;-78
2022/02/24 09:55:07;;;;;;;10.02;2.75;;;;;;;9.48;67.29;100768.00;5006442;28;20034;-77
2022/02/24 09:57:33;;;;;;;13.35;2.42;;;;;;;9.32;67.05;100756.53;4995511;28;20489;-78
2022/02/24 09:59:58;;;;;;;14.05;3.05;;;;;;;9.49;67.78;100751.47;5007839;28;20073;-79
2022/02/24 10:02:24;;;;;;;12.43;2.97;;;;;;;9.78;68.36;100753.81;4976475;28;20034;-78
2022/02/24 10:05:07;;;;;;;9.77;2.85;;;;;;;9.70;67.68;100746.81;4995008;28;20038;-79
2022/02/24 10:07:35;;;;;;;12.77;3.00;;;;;;;9.98;66.36;100743.22;4995579;28;20386;-76
2022/02/24 10:10:21;;;;;;;18.05;4.20;;;;;;;10.27;66.62;100733.34;4987186;28;20058;-77
2022/02/24 10:13:09;;;;;;;12.43;3.45;;;;;;;10.40;66.23;100732.94;4976568;28;20138;-77
2022/02/24 10:15:37;;;;;;;12.32;3.00;;;;;;;10.08;65.26;100718.84;4994748;28;20034;-76
2022/02/24 10:18:06;;;;;;;11.68;3.03;;;;;;;10.18;65.82;100726.50;5009898;28;20081;-78
2022/02/24 10:20:45;;;;;;;17.95;3.38;;;;;;;10.12;65.08;100712.38;5009274;28;20409;-79
2022/02/24 10:23:12;;;;;;;13.52;3.47;;;;;;;10.21;64.55;100710.66;5002510;28;20027;-76
2022/02/24 10:25:39;;;;;;;13.90;3.42;;;;;;;10.26;65.14;100712.78;5003080;28;20062;-78
2022/02/24 10:28:05;;;;;;;10.70;2.67;;;;;;;10.27;64.82;100707.44;5008916;28;20049;-77
2022/02/24 10:30:31;;;;;;;13.95;3.67;;;;;;;10.25;64.63;100714.56;4990845;28;20500;-78
2022/02/24 10:32:56;;;;;;;9.52;2.72;;;;;;;10.06;63.25;100713.00;4989965;28;20069;-77
2022/02/24 10:35:34;;;;;;;18.58;2.70;;;;;;;9.96;63.63;100711.50;4984738;28;20060;-77
2022/02/24 10:38:01;;;;;;;14.32;2.55;;;;;;;10.10;64.08;100703.16;4981433;28;20049;-78
2022/02/24 10:40:34;;;;;;;16.15;2.83;;;;;;;10.21;63.94;100700.28;5007944;28;20022;-78
2022/02/24 10:43:08;;;;;;;15.82;3.20;;;;;;;10.34;62.74;100694.72;4995524;28;20115;-77
2022/02/24 10:45:34;;;;;;;14.23;2.10;;;;;;;10.49;62.70;100681.94;5016647;28;20524;-79
2022/02/24 10:48:02;;;;;;;9.20;1.90;;;;;;;10.55;62.54;100683.91;4986132;28;20062;-77
2022/02/24 10:50:47;;;;;;;10.98;2.58;;;;;;;10.55;63.26;100662.34;5011781;28;20125;-76
2022/02/24 10:53:14;;;;;;;7.82;1.88;;;;;;;10.37;63.56;100657.28;4992497;28;20084;-78
2022/02/24 10:56:08;;;;;;;12.50;2.58;;;;;;;10.44;63.82;100655.69;4997597;28;20025;-77
2022/02/24 10:58:43;;;;;;;10.52;2.33;;;;;;;10.56;63.29;100645.81;4993907;28;20366;-77
2022/02/24 11:01:18;;;;;;;13.82;2.70;;;;;;;10.55;62.75;100631.22;4998600;28;20132;-78
2022/02/24 11:03:49;;;;;;;13.75;2.30;;;;;;;10.49;61.70;100632.66;4998107;28;20034;-79
2022/02/24 11:06:14;;;;;;;9.80;2.58;;;;;;;10.55;61.41;100637.25;4992419;28;20096;-77
2022/02/24 11:08:43;;;;;;;11.95;1.83;;;;;;;10.70;61.81;100634.84;5005096;28;20034;-78
2022/02/24 11:11:09;;;;;;;7.38;1.85;;;;;;;10.72;61.07;100617.31;4988936;28;20049;-78
2022/02/24 11:13:35;;;;;;;11.48;2.13;;;;;;;10.81;60.96;100615.53;4989353;28;20027;-78
2022/02/24 11:16:02;;;;;;;6.90;1.88;;;;;;;10.86;59.57;100613.28;5007358;28;20510;-79
2022/02/24 11:18:28;;;;;;;9.48;1.70;;;;;;;10.63;59.27;100611.31;4992192;28;20042;-79
2022/02/24 11:20:55;;;;;;;12.60;2.83;;;;;;;10.63;59.10;100603.53;4988732;28;20034;-78
2022/02/24 11:23:22;;;;;;;7.53;1.52;;;;;;;10.62;59.67;100591.53;5001900;28;20126;-78